Time;durP1;ratioP1;P1;durP2;ratioP2;P2;SDS_P1;SDS_P2;PMS_P1;PMS_P2;Temp;Humidity;BMP_temperature;BMP_pressure;BME280_temperature;BME280_humidity;BME280_pressure;Samples;Min_cycle;Max_cycle;Signal;HPM_P1;HPM_P2
2022/03/19 00:02:50;;;;;;;38.98;27.65;;;11.00;99.90;;;;;;1924708;73;21047;-88
2022/03/19 00:05:42;;;;;;;40.40;27.17;;;10.90;99.90;;;;;;1919425;73;21097;-88
2022/03/19 00:11:16;;;;;;;40.90;28.73;;;10.90;99.90;;;;;;1929507;72;22176;-90
2022/03/19 00:14:26;;;;;;;39.58;26.52;;;10.90;99.90;;;;;;1898014;75;21071;-88
2022/03/19 00:17:17;;;;;;;40.78;27.98;;;10.90;99.90;;;;;;1893352;75;21672;-89
2022/03/19 00:20:11;;;;;;;41.42;27.37;;;10.90;99.90;;;;;;1893344;75;21166;-88
2022/03/19 00:25:41;;;;;;;40.63;28.47;;;10.90;99.90;;;;;;1922130;72;22320;-90
2022/03/19 00:31:47;;;;;;;44.05;28.47;;;10.80;99.90;;;;;;1919302;72;22305;-85
2022/03/19 00:35:00;;;;;;;42.75;28.75;;;10.90;99.90;;;;;;1886216;75;21619;-85
2022/03/19 00:37:53;;;;;;;40.98;28.45;;;10.90;99.90;;;;;;1888930;75;21177;-85
2022/03/19 00:40:47;;;;;;;40.70;27.87;;;10.80;99.90;;;;;;1891605;75;21170;-88
2022/03/19 00:43:41;;;;;;;42.17;27.62;;;10.80;99.90;;;;;;1873805;75;21070;-86
2022/03/19 00:46:36;;;;;;;41.68;28.27;;;10.70;99.90;;;;;;1824904;77;21153;-86
2022/03/19 00:49:29;;;;;;;37.20;27.60;;;10.70;99.90;;;;;;1888943;75;21126;-86
2022/03/19 00:55:16;;;;;;;43.15;29.92;;;10.80;99.90;;;;;;1959863;72;22620;-85
2022/03/19 00:58:26;;;;;;;45.28;29.18;;;10.80;99.90;;;;;;1916524;74;21148;-90
2022/03/19 01:01:18;;;;;;;42.45;29.82;;;10.80;99.90;;;;;;1927931;74;21112;-90
2022/03/19 01:04:10;;;;;;;44.48;29.55;;;10.80;99.90;;;;;;1935232;74;21358;-90
2022/03/19 01:09:39;;;;;;;44.98;28.67;;;10.80;99.90;;;;;;1949936;72;22139;-88
2022/03/19 01:12:50;;;;;;;40.35;29.18;;;10.80;99.90;;;;;;1888108;75;21121;-89
2022/03/19 01:15:44;;;;;;;41.90;29.05;;;10.80;99.90;;;;;;1877843;75;21110;-87
2022/03/19 01:21:18;;;;;;;43.83;29.85;;;10.60;99.90;;;;;;1956873;72;22209;-85
2022/03/19 01:24:31;;;;;;;40.73;28.55;;;10.60;99.90;;;;;;1898261;75;21058;-87
2022/03/19 01:30:04;;;;;;;40.03;28.38;;;10.70;99.90;;;;;;1969869;72;22265;-86
2022/03/19 01:35:52;;;;;;;39.67;28.75;;;10.70;99.90;;;;;;1936794;72;22229;-88
2022/03/19 01:39:12;;;;;;;38.78;28.57;;;10.70;99.90;;;;;;1888535;75;21077;-86
2022/03/19 01:44:45;;;;;;;40.92;29.85;;;10.70;99.90;;;;;;1944024;72;22153;-88
2022/03/19 01:50:36;;;;;;;39.08;28.20;;;10.70;99.90;;;;;;1934112;72;22254;-87
2022/03/19 01:56:40;;;;;;;42.83;31.17;;;10.80;99.90;;;;;;1952411;72;22204;-86
2022/03/19 02:02:45;;;;;;;40.83;29.72;;;10.70;99.90;;;;;;1945125;72;22151;-87
2022/03/19 02:05:56;;;;;;;40.75;28.47;;;10.70;99.90;;;;;;1917944;73;21093;-87
2022/03/19 02:08:48;;;;;;;45.92;30.08;;;10.60;99.90;;;;;;1930344;73;21141;-87
2022/03/19 02:11:40;;;;;;;42.73;29.32;;;10.50;99.90;;;;;;1926827;73;21059;-86
2022/03/19 02:14:34;;;;;;;40.70;28.75;;;10.50;99.90;;;;;;1917869;75;21059;-86
2022/03/19 02:17:26;;;;;;;41.92;29.85;;;10.60;99.90;;;;;;1930525;73;21217;-86
2022/03/19 02:20:19;;;;;;;40.73;27.98;;;10.60;99.90;;;;;;1939840;73;21529;-87
2022/03/19 02:25:50;;;;;;;44.27;29.72;;;10.60;99.90;;;;;;1953058;72;22196;-87
2022/03/19 02:29:00;;;;;;;44.42;30.40;;;10.70;99.90;;;;;;1885380;74;21064;-87
2022/03/19 02:34:31;;;;;;;39.95;28.95;;;10.70;99.90;;;;;;1937361;72;22270;-87
2022/03/19 02:40:21;;;;;;;40.95;29.48;;;10.70;99.90;;;;;;1946483;72;22304;-87
2022/03/19 02:46:09;;;;;;;43.83;28.83;;;10.60;99.90;;;;;;1956909;72;22592;-87
2022/03/19 02:49:21;;;;;;;41.45;29.30;;;10.60;99.90;;;;;;1897723;75;21189;-87
2022/03/19 02:52:13;;;;;;;43.45;29.55;;;10.60;99.90;;;;;;1888714;75;21244;-87
2022/03/19 02:55:05;;;;;;;39.45;28.75;;;10.60;99.90;;;;;;1873486;75;21067;-86
2022/03/19 02:58:01;;;;;;;41.77;28.95;;;10.60;99.90;;;;;;1883788;75;21108;-86
2022/03/19 03:00:52;;;;;;;40.88;28.35;;;10.70;99.90;;;;;;1894270;75;21150;-86
2022/03/19 03:03:44;;;;;;;40.95;28.23;;;10.70;99.90;;;;;;1879214;75;21733;-86
2022/03/19 03:09:25;;;;;;;40.58;28.92;;;10.70;99.90;;;;;;1951947;72;22157;-87
2022/03/19 03:12:35;;;;;;;40.60;28.75;;;10.60;99.90;;;;;;1921569;73;21063;-86
2022/03/19 03:15:27;;;;;;;42.20;29.55;;;10.60;99.90;;;;;;1906362;74;21058;-86
2022/03/19 03:21:04;;;;;;;40.78;28.57;;;10.50;99.90;;;;;;1935090;72;22183;-85
2022/03/19 03:26:53;;;;;;;42.43;28.52;;;10.60;99.90;;;;;;1953539;72;22582;-85
2022/03/19 03:30:05;;;;;;;39.10;28.07;;;10.60;99.90;;;;;;1912571;74;21212;-86
2022/03/19 03:35:37;;;;;;;44.63;28.12;;;10.60;99.90;;;;;;2045515;69;22044;-85
2022/03/19 03:38:47;;;;;;;35.90;26.25;;;10.60;99.90;;;;;;1980983;72;21085;-88
2022/03/19 03:41:39;;;;;;;41.25;28.17;;;10.60;99.90;;;;;;1957226;72;21245;-86
2022/03/19 03:44:30;;;;;;;40.20;28.10;;;10.60;99.90;;;;;;1953325;72;21039;-86
2022/03/19 03:50:04;;;;;;;30.30;20.48;;;10.50;99.90;;;;;;1929334;72;22193;-87
2022/03/19 03:53:13;;;;;;;28.73;18.98;;;10.40;99.90;;;;;;1870997;75;21577;-86
2022/03/19 03:56:08;;;;;;;33.28;19.25;;;10.20;99.90;;;;;;1889228;75;21115;-86
2022/03/19 04:04:41;;;;;;;28.12;17.98;;;9.80;99.90;;;;;;1942547;72;22401;-88
2022/03/19 04:07:50;;;;;;;31.70;18.62;;;9.80;99.90;;;;;;1917421;75;21170;-86
2022/03/19 04:10:42;;;;;;;28.55;18.98;;;9.80;99.90;;;;;;1922188;73;21066;-86
2022/03/19 04:16:14;;;;;;;35.28;17.82;;;9.70;99.90;;;;;;1948894;72;22774;-86
2022/03/19 04:23:07;;;;;;;30.15;18.42;;;9.80;99.90;;;;;;2063449;68;22107;-88
2022/03/19 04:26:16;;;;;;;31.40;18.30;;;9.80;99.90;;;;;;1998779;72;21520;-86
2022/03/19 04:29:08;;;;;;;32.38;17.85;;;9.70;99.90;;;;;;2012471;70;21019;-86
2022/03/19 04:31:59;;;;;;;32.00;18.20;;;9.70;99.90;;;;;;2010360;70;21042;-86
2022/03/19 04:34:51;;;;;;;29.20;18.57;;;9.70;99.90;;;;;;2010980;70;21063;-87
2022/03/19 04:37:46;;;;;;;31.27;18.17;;;9.60;99.90;;;;;;2014024;70;21030;-86
2022/03/19 04:40:40;;;;;;;27.02;18.65;;;9.60;99.90;;;;;;2010207;70;21027;-86
2022/03/19 04:43:31;;;;;;;27.35;17.60;;;9.50;99.90;;;;;;2020131;70;21118;-86
2022/03/19 04:46:23;;;;;;;27.52;18.52;;;9.50;99.90;;;;;;2030084;70;21536;-86
2022/03/19 04:54:47;;;;;;;29.77;18.20;;;9.60;99.90;;;;;;1945762;72;22137;-87
2022/03/19 04:57:57;;;;;;;32.93;20.57;;;9.70;99.90;;;;;;1922214;73;21047;-87
2022/03/19 05:00:49;;;;;;;35.23;20.25;;;9.70;99.90;;;;;;1937061;73;21086;-86
2022/03/19 05:03:41;;;;;;;36.70;23.10;;;9.70;99.90;;;;;;1923926;73;21100;-87
2022/03/19 05:12:40;;;;;;;38.50;24.10;;;9.90;99.90;;;;;;1894293;75;21093;-87
2022/03/19 05:15:32;;;;;;;37.65;25.08;;;9.90;99.90;;;;;;1897340;75;21047;-87
2022/03/19 05:21:03;;;;;;;42.58;26.80;;;10.00;99.90;;;;;;1950831;72;22174;-85
2022/03/19 05:24:13;;;;;;;36.80;25.97;;;10.10;99.90;;;;;;1890123;74;21207;-86
2022/03/19 05:27:05;;;;;;;41.65;27.52;;;10.20;99.90;;;;;;1895609;75;21161;-87
2022/03/19 05:32:45;;;;;;;45.03;29.82;;;10.30;99.90;;;;;;1954229;72;22163;-85
2022/03/19 05:35:54;;;;;;;37.95;28.20;;;10.30;99.90;;;;;;1924303;74;21044;-87
2022/03/19 05:38:46;;;;;;;40.23;29.15;;;10.30;99.90;;;;;;1930017;74;21040;-86
2022/03/19 05:41:37;;;;;;;45.40;29.40;;;10.30;99.90;;;;;;1905590;74;21126;-86
2022/03/19 05:44:29;;;;;;;42.48;28.73;;;10.30;99.90;;;;;;1905453;75;21115;-86
2022/03/19 05:50:02;;;;;;;41.92;29.45;;;10.30;99.90;;;;;;1950424;72;22953;-85
2022/03/19 05:53:12;;;;;;;40.45;28.60;;;10.30;99.90;;;;;;1891595;75;21092;-87
2022/03/19 05:56:04;;;;;;;42.73;28.83;;;10.30;99.90;;;;;;1894733;75;21088;-86
2022/03/19 05:58:55;;;;;;;41.70;27.80;;;10.30;99.90;;;;;;1893063;75;21033;-85
2022/03/19 06:01:47;;;;;;;43.30;28.73;;;10.30;99.90;;;;;;1892527;75;21810;-86
2022/03/19 06:07:20;;;;;;;45.33;28.80;;;10.20;99.90;;;;;;1937323;72;22296;-86
2022/03/19 06:13:11;;;;;;;39.78;28.85;;;10.20;99.90;;;;;;1944240;72;22174;-85
2022/03/19 06:16:21;;;;;;;41.00;28.38;;;10.20;99.90;;;;;;1889205;75;21104;-86
2022/03/19 06:19:12;;;;;;;38.90;27.93;;;10.20;99.90;;;;;;1914013;75;21566;-86
2022/03/19 06:24:44;;;;;;;42.55;27.37;;;10.30;99.90;;;;;;1933575;72;22941;-85
2022/03/19 06:27:54;;;;;;;38.92;28.35;;;10.40;99.90;;;;;;1919335;73;21078;-88
2022/03/19 06:30:46;;;;;;;36.68;26.60;;;10.40;99.90;;;;;;1908222;74;21083;-87
2022/03/19 06:33:42;;;;;;;37.67;27.27;;;10.40;99.90;;;;;;1905461;74;21161;-88
2022/03/19 06:39:18;;;;;;;36.88;26.60;;;10.30;99.90;;;;;;1930172;72;22236;-87
2022/03/19 06:42:28;;;;;;;37.70;27.30;;;10.40;99.90;;;;;;1897710;75;21043;-86
2022/03/19 06:45:20;;;;;;;38.67;27.58;;;10.30;99.90;;;;;;1901180;75;21188;-86
2022/03/19 06:50:51;;;;;;;37.88;26.10;;;10.30;99.90;;;;;;1936399;72;22323;-85
2022/03/19 06:56:52;;;;;;;39.58;26.82;;;10.30;99.90;;;;;;1973154;72;22178;-87
2022/03/19 07:00:03;;;;;;;38.55;25.60;;;10.40;99.90;;;;;;1917549;74;21149;-86
2022/03/19 07:02:56;;;;;;;34.33;23.98;;;10.40;99.90;;;;;;1932530;73;21593;-85
2022/03/19 07:05:48;;;;;;;39.83;25.30;;;10.40;99.90;;;;;;1929906;73;21063;-85
2022/03/19 07:11:19;;;;;;;36.90;25.48;;;10.40;99.90;;;;;;1934527;72;22127;-87
2022/03/19 07:17:10;;;;;;;38.80;24.70;;;10.40;99.90;;;;;;1938551;72;22196;-85
2022/03/19 07:20:20;;;;;;;35.95;24.63;;;10.40;99.90;;;;;;1893160;75;21128;-86
2022/03/19 07:23:13;;;;;;;35.98;24.77;;;10.40;99.90;;;;;;1902096;75;21063;-86
2022/03/19 07:26:04;;;;;;;33.92;24.47;;;10.40;99.90;;;;;;1905184;75;21121;-87
2022/03/19 07:28:56;;;;;;;33.10;23.52;;;10.50;99.90;;;;;;1847349;77;21076;-86
2022/03/19 07:31:47;;;;;;;33.67;24.32;;;10.60;99.90;;;;;;1904513;75;21223;-86
2022/03/19 07:34:43;;;;;;;32.85;23.42;;;10.70;99.90;;;;;;1877457;75;21185;-94
2022/03/19 07:40:15;;;;;;;33.10;22.42;;;10.70;99.90;;;;;;1954673;72;22185;-93
2022/03/19 07:43:26;;;;;;;35.78;24.55;;;10.80;99.90;;;;;;1904960;75;21368;-91
2022/03/19 07:46:17;;;;;;;29.42;22.32;;;10.80;99.90;;;;;;1914735;75;21051;-90
2022/03/19 07:49:08;;;;;;;29.15;21.77;;;10.90;99.90;;;;;;1831057;75;33758;-90
2022/03/19 07:54:46;;;;;;;30.43;22.37;;;11.00;99.90;;;;;;1961618;72;22161;-92
2022/03/19 07:57:56;;;;;;;28.92;21.37;;;11.10;99.90;;;;;;1925695;73;21041;-91
2022/03/19 08:03:37;;;;;;;28.05;21.20;;;11.10;99.90;;;;;;1938608;72;20284;-92
2022/03/19 08:06:55;;;;;;;26.75;20.85;;;11.10;99.90;;;;;;1892090;74;21196;-92
2022/03/19 08:09:47;;;;;;;28.42;21.23;;;11.20;99.90;;;;;;1906532;75;21095;-92
2022/03/19 08:28:55;;;;;;;28.45;21.77;;;11.50;99.90;;;;;;1985158;71;22188;-91
2022/03/19 08:34:55;;;;;;;27.85;21.33;;;11.80;99.90;;;;;;1954226;72;22154;-91
2022/03/19 08:41:01;;;;;;;29.45;21.05;;;12.00;99.90;;;;;;1971036;72;22208;-91
2022/03/19 08:44:12;;;;;;;27.75;20.52;;;12.10;99.90;;;;;;1940426;73;21060;-90
2022/03/19 08:47:04;;;;;;;26.07;19.67;;;12.20;99.90;;;;;;1917601;75;21062;-90
2022/03/19 08:49:56;;;;;;;29.37;21.12;;;12.20;99.90;;;;;;1917725;74;21054;-90
2022/03/19 08:52:49;;;;;;;25.70;20.45;;;12.20;99.90;;;;;;1917438;75;21173;-90
2022/03/19 08:55:40;;;;;;;26.77;20.37;;;12.20;99.90;;;;;;1943825;73;21043;-90
2022/03/19 09:01:52;;;;;;;26.12;20.77;;;12.20;99.90;;;;;;2070209;68;22108;-91
2022/03/19 09:05:02;;;;;;;28.32;20.55;;;12.10;99.90;;;;;;2021200;70;21079;-91
2022/03/19 09:07:56;;;;;;;25.00;20.02;;;12.10;99.90;;;;;;2004246;70;21099;-90
2022/03/19 09:10:48;;;;;;;26.75;20.57;;;12.10;99.90;;;;;;2012712;70;21113;-89
2022/03/19 09:30:46;;;;;;;29.82;22.07;;;12.40;99.90;;;;;;1934731;72;22138;-88
2022/03/19 09:36:46;;;;;;;28.40;22.17;;;12.60;99.90;;;;;;1943690;72;22160;-90
2022/03/19 09:39:58;;;;;;;28.70;20.97;;;12.70;99.90;;;;;;1944341;73;21257;-89
2022/03/19 09:42:56;;;;;;;31.02;22.77;;;12.90;99.90;;;;;;1927212;73;21136;-90
2022/03/19 09:45:51;;;;;;;29.23;21.57;;;13.00;99.90;;;;;;1917679;75;21117;-89
2022/03/19 09:48:43;;;;;;;29.80;22.10;;;13.00;99.90;;;;;;1920155;73;21638;-89
2022/03/19 09:51:40;;;;;;;29.67;21.97;;;13.10;99.90;;;;;;1917689;75;21143;-89
2022/03/19 10:13:10;;;;;;;32.30;22.75;;;13.50;99.90;;;;;;1934045;72;22143;-88
2022/03/19 10:16:23;;;;;;;27.98;21.95;;;13.60;99.90;;;;;;1897223;74;21087;-90
2022/03/19 10:24:53;;;;;;;32.33;22.32;;;13.80;99.90;;;;;;1966302;72;22113;-90
2022/03/19 10:28:08;;;;;;;37.73;22.67;;;13.80;99.90;;;;;;1926916;73;21047;-89
2022/03/19 10:30:58;;;;;;;29.82;22.05;;;13.80;99.90;;;;;;1924249;73;21160;-88
2022/03/19 10:33:51;;;;;;;31.60;21.82;;;13.80;99.90;;;;;;1880551;76;21199;-88
2022/03/19 10:36:45;;;;;;;33.73;22.73;;;13.80;99.90;;;;;;1917523;73;21066;-90
2022/03/19 10:39:36;;;;;;;31.15;21.85;;;13.90;99.90;;;;;;1917428;73;21106;-89
2022/03/19 10:42:29;;;;;;;32.25;21.73;;;13.90;99.90;;;;;;1917613;75;21199;-88
2022/03/19 10:45:23;;;;;;;33.58;22.13;;;14.00;99.90;;;;;;1917723;75;21094;-88
2022/03/19 10:48:16;;;;;;;31.50;21.85;;;14.10;99.90;;;;;;1917698;75;21055;-89
2022/03/19 10:51:10;;;;;;;32.40;22.67;;;14.00;99.90;;;;;;1932463;73;21123;-89
2022/03/19 10:54:04;;;;;;;36.33;22.65;;;14.10;99.90;;;;;;1941212;73;21114;-89
2022/03/19 10:56:56;;;;;;;31.80;21.20;;;14.30;99.90;;;;;;1917578;75;21140;-87
2022/03/19 10:59:49;;;;;;;30.02;20.88;;;14.20;99.90;;;;;;1918848;75;21044;-88
2022/03/19 11:05:30;;;;;;;32.70;25.00;;;14.10;99.90;;;;;;1926128;72;28051;-87
2022/03/19 11:11:24;;;;;;;28.60;21.10;;;14.60;99.90;;;;;;1953383;72;22584;-88
2022/03/19 11:14:36;;;;;;;32.38;22.65;;;14.50;99.90;;;;;;1917762;75;21110;-89
2022/03/19 11:20:10;;;;;;;35.30;21.73;;;14.60;99.90;;;;;;1936711;72;22177;-89
2022/03/19 11:23:24;;;;;;;31.25;21.00;;;14.60;99.90;;;;;;1903874;74;21110;-90
2022/03/19 11:26:19;;;;;;;28.45;20.60;;;14.80;99.90;;;;;;1916397;75;21047;-88
2022/03/19 11:33:31;;;;;;;27.30;20.23;;;14.90;99.90;;;;;;1992473;71;22086;-88
2022/03/19 11:39:35;;;;;;;30.20;20.62;;;14.70;99.90;;;;;;1945734;72;22150;-90
2022/03/19 11:42:54;;;;;;;31.42;20.77;;;14.70;99.90;;;;;;1891043;75;21080;-83
2022/03/19 11:45:57;;;;;;;28.87;19.23;;;14.80;99.90;;;;;;1901921;75;21114;-82
2022/03/19 11:51:38;;;;;;;26.68;19.15;;;15.10;99.90;;;;;;1939746;72;22258;-81
2022/03/19 11:55:09;;;;;;;29.82;19.42;;;15.30;99.90;;;;;;1915340;73;21212;-83
2022/03/19 11:58:03;;;;;;;25.17;18.65;;;15.30;99.90;;;;;;1921190;73;21476;-82
2022/03/19 12:01:02;;;;;;;27.10;19.23;;;15.40;99.90;;;;;;1898885;75;21095;-82
2022/03/19 12:04:13;;;;;;;30.82;20.05;;;15.40;99.90;;;;;;1889193;75;21164;-82
2022/03/19 12:07:05;;;;;;;25.08;19.25;;;15.40;99.90;;;;;;1908026;75;21051;-82
2022/03/19 12:10:03;;;;;;;24.37;18.98;;;15.60;99.90;;;;;;1911807;75;21055;-82
2022/03/19 12:15:50;;;;;;;26.75;18.65;;;15.80;99.90;;;;;;1952726;72;22099;-81
2022/03/19 12:19:00;;;;;;;28.70;19.12;;;15.70;99.90;;;;;;1890933;75;21180;-82
2022/03/19 12:21:51;;;;;;;26.87;18.75;;;15.60;99.90;;;;;;1906970;75;21084;-82
2022/03/19 12:27:24;;;;;;;28.32;18.77;;;15.70;99.90;;;;;;1932338;72;22346;-83
2022/03/19 12:30:35;;;;;;;25.02;15.63;;;15.50;99.90;;;;;;1914790;75;21035;-82
2022/03/19 12:33:33;;;;;;;26.20;15.13;;;15.50;99.90;;;;;;1895971;75;21146;-81
2022/03/19 12:36:24;;;;;;;25.20;16.25;;;15.50;99.90;;;;;;1914426;75;21119;-82
2022/03/19 12:39:16;;;;;;;29.40;16.27;;;15.60;99.90;;;;;;1910126;75;21134;-82
2022/03/19 12:42:09;;;;;;;24.32;15.75;;;15.80;99.90;;;;;;1906863;74;21113;-81
2022/03/19 12:47:38;;;;;;;26.45;15.48;;;15.90;99.90;;;;;;1926832;72;22315;-81
2022/03/19 12:53:35;;;;;;;23.83;13.85;;;16.10;99.90;;;;;;1941507;72;22109;-81
2022/03/19 12:59:31;;;;;;;24.95;14.60;;;16.20;99.90;;;;;;1945248;72;22302;-80
2022/03/19 13:02:51;;;;;;;24.80;13.38;;;16.30;99.90;;;;;;1946437;73;21123;-81
2022/03/19 13:08:21;;;;;;;20.48;9.50;;;16.60;99.90;;;;;;1951203;72;22243;-81
2022/03/19 13:11:42;;;;;;;22.02;10.20;;;16.70;99.90;;;;;;1938371;73;21151;-80
2022/03/19 13:14:34;;;;;;;16.05;8.88;;;16.70;99.90;;;;;;1928572;73;21050;-81
2022/03/19 13:17:26;;;;;;;20.88;8.00;;;16.90;99.90;;;;;;1924149;74;21067;-82
2022/03/19 13:20:18;;;;;;;20.32;7.62;;;17.00;99.90;;;;;;1938034;73;21104;-82
2022/03/19 13:23:09;;;;;;;14.95;6.67;;;16.90;99.90;;;;;;1935198;73;21066;-81
2022/03/19 13:26:02;;;;;;;16.52;6.22;;;16.50;99.90;;;;;;1937785;73;21042;-80
2022/03/19 13:31:57;;;;;;;18.27;7.65;;;17.00;99.90;;;;;;1945037;72;22121;-81
2022/03/19 13:35:09;;;;;;;16.67;7.47;;;17.10;99.90;;;;;;1888404;75;21186;-80
2022/03/19 13:56:57;;;;;;;21.20;7.47;;;17.80;99.90;;;;;;2102349;68;22047;-91
2022/03/19 14:00:14;;;;;;;16.87;7.53;;;17.80;99.90;;;;;;2045388;69;21014;-93
2022/03/19 14:03:07;;;;;;;15.13;6.72;;;17.70;99.90;;;;;;2034650;70;21088;-91
2022/03/19 14:05:59;;;;;;;18.20;7.47;;;17.80;99.90;;;;;;2036353;70;21023;-90
2022/03/19 14:08:51;;;;;;;13.72;7.37;;;17.60;99.90;;;;;;2036412;70;21023;-92
2022/03/19 14:11:44;;;;;;;14.38;7.30;;;17.80;99.90;;;;;;2036151;70;21218;-91
2022/03/19 14:14:40;;;;;;;17.07;7.60;;;17.90;99.90;;;;;;2036156;70;21450;-92
2022/03/19 14:17:48;;;;;;;14.70;7.70;;;17.80;99.90;;;;;;2036179;70;21062;-92
2022/03/19 14:20:40;;;;;;;16.77;8.80;;;17.60;99.90;;;;;;2036286;70;21058;-92
2022/03/19 14:23:34;;;;;;;19.90;9.23;;;17.60;99.90;;;;;;2033993;70;21064;-91
2022/03/19 14:26:25;;;;;;;17.30;7.30;;;17.60;99.90;;;;;;2041159;69;21030;-91
2022/03/19 14:29:19;;;;;;;14.00;8.33;;;17.70;99.90;;;;;;2042740;69;21081;-91
2022/03/19 14:32:12;;;;;;;18.25;9.03;;;18.10;99.90;;;;;;2034439;70;21011;-92
2022/03/19 14:35:04;;;;;;;16.77;9.28;;;18.20;99.90;;;;;;2034523;70;21155;-91
2022/03/19 14:37:55;;;;;;;18.55;10.00;;;18.10;99.90;;;;;;2032909;70;21127;-89
2022/03/19 14:40:48;;;;;;;20.05;10.82;;;18.30;99.90;;;;;;1987615;72;21081;-91
2022/03/19 14:46:29;;;;;;;19.92;10.55;;;18.80;99.90;;;;;;1976720;72;22163;-91
2022/03/19 14:52:17;;;;;;;16.12;9.35;;;19.30;99.90;;;;;;1958772;72;22115;-91
2022/03/19 14:55:26;;;;;;;15.00;9.45;;;19.20;99.90;;;;;;1905756;75;21564;-92
2022/03/19 14:58:18;;;;;;;16.15;9.50;;;18.90;99.90;;;;;;1918161;75;21088;-90
2022/03/19 15:01:11;;;;;;;16.82;10.03;;;19.00;99.90;;;;;;1885186;76;21105;-74
2022/03/19 15:06:41;;;;;;;17.85;10.82;;;18.70;99.90;;;;;;1941899;72;22226;-75
2022/03/19 15:09:50;;;;;;;19.30;10.88;;;19.00;99.90;;;;;;1912483;75;21510;-74
2022/03/19 15:12:42;;;;;;;16.73;10.85;;;18.60;99.90;;;;;;1884455;76;21134;-74
2022/03/19 15:15:34;;;;;;;20.30;10.28;;;18.60;99.90;;;;;;1901130;75;21062;-74
2022/03/19 15:18:28;;;;;;;18.12;9.83;;;18.50;99.90;;;;;;1906626;75;21051;-75
2022/03/19 15:21:19;;;;;;;18.52;10.70;;;18.50;99.90;;;;;;1906573;75;21117;-75
2022/03/19 15:26:50;;;;;;;19.45;12.03;;;18.30;99.90;;;;;;1940931;72;22183;-74
2022/03/19 15:32:39;;;;;;;18.75;10.65;;;18.20;99.90;;;;;;1949060;72;22251;-74
2022/03/19 15:35:48;;;;;;;18.25;11.90;;;18.40;99.90;;;;;;1952551;73;21509;-74
2022/03/19 15:38:41;;;;;;;18.77;11.88;;;18.20;99.90;;;;;;1931843;73;21093;-93
2022/03/19 16:00:26;;;;;;;19.07;12.00;;;17.90;99.90;;;;;;1945192;72;22311;-92
2022/03/19 16:06:16;;;;;;;17.75;12.80;;;17.70;99.90;;;;;;1976747;72;22185;-91
2022/03/19 16:12:17;;;;;;;16.90;12.90;;;18.00;99.90;;;;;;1950933;72;22136;-91
2022/03/19 16:15:26;;;;;;;20.17;13.48;;;17.90;99.90;;;;;;1943159;73;21090;-90
2022/03/19 16:22:11;;;;;;;20.62;12.73;;;17.80;99.90;;;;;;1934996;73;22160;-74
2022/03/19 16:28:00;;;;;;;20.82;13.48;;;17.90;99.90;;;;;;1948576;72;22197;-75
2022/03/19 16:31:10;;;;;;;17.17;12.98;;;17.60;99.90;;;;;;1909159;75;21101;-75
2022/03/19 16:34:02;;;;;;;19.85;13.72;;;17.40;99.90;;;;;;1917410;75;21129;-76
2022/03/19 16:36:55;;;;;;;22.52;13.78;;;17.30;99.90;;;;;;1901385;75;21059;-75
2022/03/19 16:39:46;;;;;;;18.75;13.72;;;17.30;99.90;;;;;;1895744;75;21097;-75
2022/03/19 16:45:18;;;;;;;20.92;13.15;;;16.90;99.90;;;;;;1963803;72;22321;-76
2022/03/19 16:48:29;;;;;;;19.98;13.22;;;16.80;99.90;;;;;;1937636;73;21098;-75
2022/03/19 16:54:00;;;;;;;19.73;12.93;;;16.60;99.90;;;;;;1946686;72;22141;-75
2022/03/19 16:57:10;;;;;;;18.82;14.25;;;16.50;99.90;;;;;;1917403;75;21188;-76
2022/03/19 17:02:41;;;;;;;16.02;12.58;;;16.40;99.90;;;;;;1950817;72;22594;-75
2022/03/19 17:05:51;;;;;;;16.52;12.50;;;16.20;99.90;;;;;;1905099;75;21133;-77
2022/03/19 17:11:22;;;;;;;17.77;12.98;;;16.20;99.90;;;;;;1934633;72;22213;-75
2022/03/19 17:14:31;;;;;;;18.82;13.08;;;16.10;99.90;;;;;;1889724;75;21142;-76
2022/03/19 17:17:25;;;;;;;21.90;14.53;;;16.00;99.90;;;;;;1899617;75;21098;-75
2022/03/19 17:20:16;;;;;;;21.65;12.70;;;16.00;99.90;;;;;;1895276;75;21126;-75
2022/03/19 17:23:08;;;;;;;17.05;13.32;;;15.90;99.90;;;;;;1895294;75;21171;-77
2022/03/19 17:26:00;;;;;;;21.02;13.35;;;16.00;99.90;;;;;;1906821;75;21048;-76
2022/03/19 17:28:53;;;;;;;19.95;12.30;;;15.90;99.90;;;;;;1884589;76;21187;-76
2022/03/19 17:31:44;;;;;;;18.92;12.82;;;15.80;99.90;;;;;;1896669;75;21102;-76
2022/03/19 17:34:35;;;;;;;20.80;13.15;;;15.70;99.90;;;;;;1896936;75;21154;-77
2022/03/19 17:37:27;;;;;;;15.68;12.13;;;15.60;99.90;;;;;;1895069;75;21584;-76
2022/03/19 17:40:19;;;;;;;20.43;12.78;;;15.70;99.90;;;;;;1895169;75;21059;-76
2022/03/19 17:43:10;;;;;;;19.95;13.15;;;15.60;99.90;;;;;;1884625;76;21548;-75
2022/03/19 17:48:39;;;;;;;18.35;13.30;;;15.30;99.90;;;;;;1954410;72;22671;-77
2022/03/19 17:54:30;;;;;;;18.87;13.68;;;15.10;99.90;;;;;;1953396;72;22150;-75
2022/03/19 17:57:39;;;;;;;21.42;13.85;;;14.90;99.90;;;;;;1925441;73;21560;-75
2022/03/19 18:00:31;;;;;;;22.58;14.98;;;14.90;99.90;;;;;;1939932;73;21153;-75
2022/03/19 18:03:22;;;;;;;20.45;14.20;;;14.80;99.90;;;;;;1947098;73;21071;-76
2022/03/19 18:06:14;;;;;;;21.15;13.65;;;14.70;99.90;;;;;;1942191;73;21721;-75
2022/03/19 18:09:06;;;;;;;21.00;13.68;;;14.60;99.90;;;;;;1936865;73;21643;-75
2022/03/19 18:12:00;;;;;;;20.02;14.13;;;14.60;99.90;;;;;;1935626;73;21034;-75
2022/03/19 18:14:58;;;;;;;21.25;14.68;;;14.50;99.90;;;;;;1934229;73;21220;-76
2022/03/19 18:17:50;;;;;;;;;;;14.50;99.90;;;;;;1948757;73;21148;-76
2022/03/19 18:20:41;;;;;;;19.52;14.53;;;14.40;99.90;;;;;;1931761;73;20116;-75
2022/03/19 18:26:13;;;;;;;24.43;15.88;;;14.40;99.90;;;;;;1950294;72;22597;-77
2022/03/19 18:29:23;;;;;;;22.75;13.85;;;14.30;99.90;;;;;;1907820;74;21077;-76
2022/03/19 18:32:19;;;;;;;21.93;14.20;;;14.30;99.90;;;;;;1898540;75;21190;-75
2022/03/19 18:35:11;;;;;;;19.77;13.98;;;14.30;99.90;;;;;;1890255;74;21097;-75
2022/03/19 18:38:03;;;;;;;18.62;13.48;;;14.20;99.90;;;;;;1904669;75;21583;-75
2022/03/19 18:40:57;;;;;;;20.85;14.40;;;14.10;99.90;;;;;;1897034;75;21063;-75
2022/03/19 18:46:28;;;;;;;21.70;13.62;;;14.00;99.90;;;;;;1947507;72;22561;-75
2022/03/19 18:49:39;;;;;;;27.42;14.58;;;13.90;99.90;;;;;;1929955;73;21151;-76
2022/03/19 18:52:36;;;;;;;20.35;13.30;;;13.90;99.90;;;;;;1917529;75;21559;-76
2022/03/19 18:55:28;;;;;;;23.40;13.40;;;13.90;99.90;;;;;;1935067;73;21525;-75
2022/03/19 18:58:19;;;;;;;17.32;12.25;;;13.90;99.90;;;;;;1938389;73;21209;-77
2022/03/19 19:01:11;;;;;;;19.98;12.28;;;13.90;99.90;;;;;;1917550;75;21094;-77
2022/03/19 19:06:42;;;;;;;18.30;12.35;;;13.70;99.90;;;;;;1940790;72;22570;-77
2022/03/19 19:09:52;;;;;;;23.87;13.08;;;13.60;99.90;;;;;;1924158;73;21053;-76
2022/03/19 19:12:45;;;;;;;20.72;12.78;;;13.70;99.90;;;;;;1936806;73;21096;-76
2022/03/19 19:18:38;;;;;;;20.40;15.00;;;13.70;99.90;;;;;;1938809;72;28151;-77
2022/03/19 19:21:47;;;;;;;16.40;11.05;;;13.70;99.90;;;;;;1918843;74;21244;-76
2022/03/19 19:24:38;;;;;;;17.25;12.45;;;13.50;99.90;;;;;;1900348;75;21063;-76
2022/03/19 19:27:31;;;;;;;20.70;12.15;;;13.40;99.90;;;;;;1913469;74;21129;-76
2022/03/19 19:30:24;;;;;;;15.80;10.93;;;13.30;99.90;;;;;;1914545;74;21068;-75
2022/03/19 19:33:16;;;;;;;17.57;13.65;;;13.20;99.90;;;;;;1916157;74;21056;-75
2022/03/19 19:36:11;;;;;;;17.98;11.93;;;13.10;99.90;;;;;;1840849;78;21141;-76
2022/03/19 19:41:43;;;;;;;20.48;11.68;;;13.10;99.90;;;;;;1935994;72;22141;-75
2022/03/19 19:44:53;;;;;;;19.40;11.88;;;13.10;99.90;;;;;;1905642;75;21532;-77
2022/03/19 19:50:26;;;;;;;21.65;12.23;;;13.00;99.90;;;;;;1921422;72;22189;-75
2022/03/19 19:56:17;;;;;;;19.10;11.73;;;13.00;99.90;;;;;;1933289;72;22213;-77
2022/03/19 19:59:27;;;;;;;16.10;11.12;;;12.90;99.90;;;;;;1892454;74;21078;-75
2022/03/19 20:02:19;;;;;;;20.68;12.05;;;12.90;99.90;;;;;;1873073;75;21065;-77
2022/03/19 20:05:11;;;;;;;18.07;12.65;;;12.90;99.90;;;;;;1884658;74;21050;-75
2022/03/19 20:10:53;;;;;;;17.27;12.20;;;12.90;99.90;;;;;;1912966;72;22210;-77
2022/03/19 20:16:45;;;;;;;17.27;11.35;;;12.70;99.90;;;;;;1939203;72;22268;-77
2022/03/19 20:22:34;;;;;;;20.52;11.50;;;12.70;99.90;;;;;;1934958;72;22246;-77
2022/03/19 20:25:46;;;;;;;18.55;12.55;;;12.60;99.90;;;;;;1919402;74;21164;-76
2022/03/19 20:28:41;;;;;;;17.80;12.28;;;12.50;99.90;;;;;;1895487;75;21102;-76
2022/03/19 20:31:36;;;;;;;17.48;12.55;;;12.50;99.90;;;;;;1880919;75;21066;-76
2022/03/19 20:34:28;;;;;;;19.65;12.80;;;12.40;99.90;;;;;;1885284;75;21063;-76
2022/03/19 20:37:20;;;;;;;18.23;12.45;;;12.30;99.90;;;;;;1906503;75;21092;-76